Time;durP1;ratioP1;P1;durP2;ratioP2;P2;SDS_P1;SDS_P2;PMS_P1;PMS_P2;Temp;Humidity;BMP_temperature;BMP_pressure;BME280_temperature;BME280_humidity;BME280_pressure;Samples;Min_cycle;Max_cycle;Signal;HPM_P1;HPM_P2
2023/02/10 00:01:39;;;;;;;22.90;12.40;;;;;;;6.99;37.94;101491.09;145088;1260;96559;-91
2023/02/10 00:05:01;;;;;;;26.30;13.20;;;;;;;6.97;38.14;101485.67;145310;1256;97476;-90
2023/02/10 00:08:23;;;;;;;23.30;13.40;;;;;;;6.97;38.16;101474.41;145095;1262;97908;-91
2023/02/10 00:11:58;;;;;;;22.00;13.10;;;;;;;6.96;38.25;101466.41;145242;1267;96589;-89
2023/02/10 00:15:21;;;;;;;23.50;13.40;;;;;;;6.95;38.43;101458.10;145159;1260;109807;-90
2023/02/10 00:18:42;;;;;;;18.70;12.70;;;;;;;6.95;38.08;101447.64;144834;1264;96629;-91
2023/02/10 00:22:04;;;;;;;25.20;14.50;;;;;;;6.92;38.41;101444.09;145373;1258;96562;-89
2023/02/10 00:25:26;;;;;;;18.40;12.80;;;;;;;6.91;38.27;101444.40;145297;1267;102751;-89
2023/02/10 00:28:48;;;;;;;22.80;12.70;;;;;;;6.91;38.46;101430.54;145595;1260;96632;-91
2023/02/10 00:32:10;;;;;;;23.50;13.20;;;;;;;6.89;38.32;101434.19;145061;1263;97913;-91
2023/02/10 00:35:36;;;;;;;22.50;12.80;;;;;;;6.86;38.36;101445.48;145162;1259;108452;-88
2023/02/10 00:38:58;;;;;;;19.40;12.20;;;;;;;6.86;38.39;101443.05;145168;1255;107711;-89
2023/02/10 00:42:20;;;;;;;28.00;14.00;;;;;;;6.87;38.33;101446.89;145170;1254;97875;-88
2023/02/10 00:45:42;;;;;;;22.00;12.90;;;;;;;6.86;38.63;101448.95;145167;1261;97881;-88
2023/02/10 00:49:05;;;;;;;23.90;14.70;;;;;;;6.85;38.35;101443.16;145158;1260;97030;-87
2023/02/10 00:52:30;;;;;;;25.50;13.40;;;;;;;6.83;38.41;101443.59;145278;1254;96711;-88
2023/02/10 00:55:52;;;;;;;20.30;12.30;;;;;;;6.81;38.48;101428.80;145122;1259;96657;-87
2023/02/10 00:59:19;;;;;;;18.80;13.60;;;;;;;6.78;38.69;101423.27;144347;1266;96979;-89
2023/02/10 01:02:41;;;;;;;17.70;11.70;;;;;;;6.77;38.59;101422.86;144341;1267;97975;-88
2023/02/10 01:06:04;;;;;;;19.90;12.80;;;;;;;6.76;38.70;101427.30;144365;1267;96739;-88
2023/02/10 01:09:25;;;;;;;22.10;13.10;;;;;;;6.76;38.72;101431.60;144410;1267;97881;-87
2023/02/10 01:12:47;;;;;;;18.70;12.80;;;;;;;6.75;38.77;101435.21;144392;1268;97950;-89
2023/02/10 01:16:14;;;;;;;22.50;12.90;;;;;;;6.76;38.71;101434.70;144419;1276;96687;-88
2023/02/10 01:19:37;;;;;;;20.30;13.60;;;;;;;6.75;38.65;101432.08;145126;1259;97868;-87
2023/02/10 01:22:58;;;;;;;16.30;11.40;;;;;;;6.73;38.59;101429.21;145107;1254;97841;-88
2023/02/10 01:26:20;;;;;;;18.30;12.40;;;;;;;6.72;39.01;101427.44;145214;1261;96628;-87
2023/02/10 01:29:42;;;;;;;20.30;12.70;;;;;;;6.72;38.80;101419.11;145118;1259;109471;-87
2023/02/10 01:33:05;;;;;;;19.30;12.50;;;;;;;6.71;38.80;101419.36;145254;1260;96564;-87
2023/02/10 01:36:28;;;;;;;18.70;11.40;;;;;;;6.69;38.71;101420.14;145000;1260;96946;-87
2023/02/10 01:39:51;;;;;;;13.60;11.30;;;;;;;6.68;38.80;101418.33;144925;1261;97953;-86
2023/02/10 01:43:20;;;;;;;18.20;11.40;;;;;;;6.66;38.69;101423.80;145281;1260;96699;-86
2023/02/10 01:46:42;;;;;;;17.50;11.70;;;;;;;6.65;39.02;101421.31;145165;1254;102878;-85
2023/02/10 01:50:04;;;;;;;17.50;12.00;;;;;;;6.63;38.64;101417.10;145166;1259;96719;-85
2023/02/10 01:53:28;;;;;;;17.40;11.80;;;;;;;6.63;38.87;101412.94;144896;1254;96718;-88
2023/02/10 01:56:50;;;;;;;22.20;10.90;;;;;;;6.63;38.95;101406.69;145020;1254;107433;-87
2023/02/10 02:00:13;;;;;;;18.20;11.60;;;;;;;6.62;38.96;101406.98;145039;1260;96668;-88
2023/02/10 02:03:40;;;;;;;20.00;11.60;;;;;;;6.59;39.08;101408.05;145097;1260;107521;-88
2023/02/10 02:07:04;;;;;;;17.10;11.50;;;;;;;6.58;39.30;101409.02;145098;1257;106749;-87
2023/02/10 02:10:43;;;;;;;18.70;10.80;;;;;;;6.57;39.22;101410.52;145216;1260;106543;-89
2023/02/10 02:14:28;;;;;;;14.80;10.70;;;;;;;6.56;39.00;101405.61;145082;1254;107442;-91
2023/02/10 02:18:12;;;;;;;24.80;11.20;;;;;;;6.54;39.19;101393.94;145182;1254;107612;-88
2023/02/10 02:21:40;;;;;;;16.80;11.70;;;;;;;6.53;39.35;101390.23;145387;1254;107222;-89
2023/02/10 02:25:13;;;;;;;15.70;11.70;;;;;;;6.52;39.35;101391.94;145124;1254;108317;-88
2023/02/10 02:28:46;;;;;;;17.20;11.10;;;;;;;6.51;39.13;101394.77;145308;1254;107284;-87
2023/02/10 02:32:17;;;;;;;16.00;11.20;;;;;;;6.49;39.31;101405.02;145042;1261;107475;-88
2023/02/10 02:35:42;;;;;;;17.20;11.60;;;;;;;6.47;39.42;101409.21;145342;1260;107503;-89
2023/02/10 02:39:05;;;;;;;19.80;11.00;;;;;;;6.45;39.44;101414.52;145165;1260;107109;-88
2023/02/10 02:42:30;;;;;;;18.00;11.30;;;;;;;6.44;39.33;101416.53;145282;1254;96964;-87
2023/02/10 02:46:20;;;;;;;16.30;10.40;;;;;;;6.44;39.30;101409.21;145289;1255;108348;-87
2023/02/10 02:49:59;;;;;;;20.00;10.80;;;;;;;6.42;39.51;101404.84;145086;1277;107588;-87
2023/02/10 02:53:46;;;;;;;18.80;11.20;;;;;;;6.41;39.66;101400.30;145195;1260;107418;-87
2023/02/10 02:57:39;;;;;;;14.70;10.80;;;;;;;6.41;39.58;101396.98;144945;1254;108449;-86
2023/02/10 03:01:05;;;;;;;15.00;10.20;;;;;;;6.38;39.43;101395.98;144929;1258;107626;-87
2023/02/10 03:04:30;;;;;;;16.00;10.30;;;;;;;6.37;39.71;101402.81;145305;1260;107554;-87
2023/02/10 03:07:55;;;;;;;17.40;12.10;;;;;;;6.37;39.62;101402.45;145683;1256;108395;-86
2023/02/10 03:11:17;;;;;;;16.90;11.90;;;;;;;6.37;39.67;101404.19;145211;1254;97080;-87
2023/02/10 03:14:39;;;;;;;19.60;11.30;;;;;;;6.37;39.67;101403.67;145085;1259;97905;-88
2023/02/10 03:18:01;;;;;;;16.30;11.10;;;;;;;6.37;39.74;101401.10;145184;1258;96585;-87
2023/02/10 03:21:25;;;;;;;16.90;11.20;;;;;;;6.37;39.70;101394.53;144866;1257;96664;-87
2023/02/10 03:24:47;;;;;;;17.90;11.90;;;;;;;6.36;39.61;101387.21;145117;1254;97891;-87
2023/02/10 03:28:09;;;;;;;21.20;11.70;;;;;;;6.32;39.62;101383.04;145090;1257;96570;-86
2023/02/10 03:31:34;;;;;;;18.50;11.30;;;;;;;6.30;39.60;101388.40;145087;1259;96711;-88
2023/02/10 03:34:57;;;;;;;19.10;10.90;;;;;;;6.30;39.73;101394.96;145146;1261;97461;-86
2023/02/10 03:38:19;;;;;;;18.30;11.70;;;;;;;6.30;39.77;101402.41;144909;1268;97846;-88
2023/02/10 03:41:41;;;;;;;18.80;11.10;;;;;;;6.29;39.49;101395.96;145460;1255;109824;-87
2023/02/10 03:45:04;;;;;;;22.20;11.30;;;;;;;6.28;39.65;101386.79;145058;1260;97483;-88
2023/02/10 03:48:30;;;;;;;17.70;12.20;;;;;;;6.27;39.63;101377.59;145135;1259;97890;-89
2023/02/10 03:51:52;;;;;;;17.50;11.40;;;;;;;6.24;39.52;101372.72;144935;1258;108693;-88
2023/02/10 03:55:19;;;;;;;19.90;11.70;;;;;;;6.21;39.59;101374.77;145020;1260;96980;-89
2023/02/10 03:58:43;;;;;;;18.60;11.10;;;;;;;6.21;39.86;101382.53;145079;1254;109250;-86
2023/02/10 04:02:05;;;;;;;16.60;11.50;;;;;;;6.20;39.78;101395.25;145161;1254;109779;-87
2023/02/10 04:05:27;;;;;;;20.00;11.30;;;;;;;6.19;39.70;101400.90;145131;1254;96578;-87
2023/02/10 04:08:51;;;;;;;17.60;11.30;;;;;;;6.19;39.87;101399.67;145128;1254;96548;-85
2023/02/10 04:12:13;;;;;;;17.60;11.20;;;;;;;6.17;39.73;101390.45;145017;1263;97840;-86
2023/02/10 04:15:35;;;;;;;25.00;12.10;;;;;;;6.16;39.87;101395.05;144835;1259;101942;-84
2023/02/10 04:18:57;;;;;;;16.60;10.80;;;;;;;6.15;39.96;101400.55;145070;1259;96575;-83
2023/02/10 04:22:21;;;;;;;20.90;11.00;;;;;;;6.14;39.95;101404.11;145094;1257;96636;-83
2023/02/10 04:25:43;;;;;;;21.10;12.20;;;;;;;6.14;39.81;101405.11;145053;1261;98226;-84
2023/02/10 04:29:05;;;;;;;12.90;10.90;;;;;;;6.13;40.06;101406.13;145197;1259;107475;-84
2023/02/10 04:32:27;;;;;;;16.80;10.40;;;;;;;6.13;40.18;101409.02;145084;1254;97454;-84
2023/02/10 04:35:49;;;;;;;18.00;11.20;;;;;;;6.13;39.50;101412.13;145167;1259;96618;-84
2023/02/10 04:39:11;;;;;;;16.30;10.50;;;;;;;6.12;39.80;101410.02;144846;1254;97130;-85
2023/02/10 04:42:33;;;;;;;14.70;10.90;;;;;;;6.10;39.93;101409.58;145185;1254;97888;-85
2023/02/10 04:45:54;;;;;;;16.80;10.70;;;;;;;6.10;39.97;101409.54;144905;1260;97425;-85
2023/02/10 04:49:17;;;;;;;16.70;11.50;;;;;;;6.08;40.17;101404.61;145090;1254;96559;-85
2023/02/10 04:52:40;;;;;;;17.00;11.20;;;;;;;6.07;39.91;101396.92;145152;1259;97886;-85
2023/02/10 04:56:03;;;;;;;19.00;10.40;;;;;;;6.06;39.88;101391.88;145156;1254;96600;-86
2023/02/10 04:59:25;;;;;;;16.70;11.40;;;;;;;6.06;40.28;101393.95;145205;1254;97101;-84
2023/02/10 05:02:47;;;;;;;13.30;10.80;;;;;;;6.06;39.95;101394.63;145027;1259;96694;-85
2023/02/10 05:06:11;;;;;;;16.80;11.10;;;;;;;6.07;40.15;101396.06;145147;1259;109590;-85
2023/02/10 05:09:33;;;;;;;14.70;10.90;;;;;;;6.08;39.66;101392.85;144966;1259;111365;-85
2023/02/10 05:12:55;;;;;;;15.50;11.00;;;;;;;6.10;40.01;101386.76;145212;1259;96543;-85
2023/02/10 05:16:17;;;;;;;18.80;10.50;;;;;;;6.12;39.90;101379.45;145218;1254;97885;-85
2023/02/10 05:19:39;;;;;;;14.00;9.50;;;;;;;6.13;40.06;101382.12;145257;1254;102238;-84
2023/02/10 05:23:01;;;;;;;17.20;11.10;;;;;;;6.14;40.30;101381.83;145232;1258;96658;-84
2023/02/10 05:26:23;;;;;;;15.00;10.40;;;;;;;6.16;40.05;101377.80;144950;1254;96645;-87
2023/02/10 05:29:44;;;;;;;16.00;11.10;;;;;;;6.17;39.96;101370.61;145225;1254;107072;-84
2023/02/10 05:33:06;;;;;;;18.50;11.30;;;;;;;6.18;40.14;101363.59;145187;1256;96630;-84
2023/02/10 05:36:28;;;;;;;14.60;10.20;;;;;;;6.19;40.18;101387.79;145170;1256;96570;-85
2023/02/10 05:39:50;;;;;;;17.70;11.30;;;;;;;6.21;39.79;101389.83;144945;1260;96627;-84
2023/02/10 05:43:12;;;;;;;12.90;10.60;;;;;;;6.23;39.87;101393.03;145114;1258;96615;-85
2023/02/10 05:46:34;;;;;;;18.80;11.00;;;;;;;6.24;39.82;101391.20;145160;1259;97470;-85
2023/02/10 05:49:55;;;;;;;15.80;12.20;;;;;;;6.26;40.13;101394.95;145293;1254;96613;-84
2023/02/10 05:53:18;;;;;;;16.30;11.00;;;;;;;6.27;40.06;101400.34;144969;1254;96570;-85
2023/02/10 05:56:40;;;;;;;15.60;10.40;;;;;;;6.28;39.91;101404.73;145193;1254;97469;-83
2023/02/10 06:00:07;;;;;;;18.30;11.30;;;;;;;6.30;40.12;101402.05;144873;1257;110258;-88
2023/02/10 06:03:38;;;;;;;19.00;10.40;;;;;;;6.30;39.78;101398.45;145166;1258;109712;-84
2023/02/10 06:07:00;;;;;;;14.50;10.60;;;;;;;6.32;39.94;101396.81;145134;1255;96654;-84
2023/02/10 06:10:22;;;;;;;13.70;10.20;;;;;;;6.34;39.78;101397.80;145205;1254;96558;-84
2023/02/10 06:13:45;;;;;;;16.10;10.50;;;;;;;6.36;40.24;101400.67;145221;1259;102128;-82
2023/02/10 06:17:08;;;;;;;15.50;10.40;;;;;;;6.37;40.07;101401.43;145156;1259;97884;-84
2023/02/10 06:20:30;;;;;;;17.30;11.20;;;;;;;6.39;40.16;101407.09;145211;1268;96559;-84
2023/02/10 06:23:52;;;;;;;16.40;10.90;;;;;;;6.41;40.00;101406.00;145184;1260;96573;-81
2023/02/10 06:27:15;;;;;;;15.00;9.90;;;;;;;6.44;40.27;101407.02;145209;1259;106500;-81
2023/02/10 06:30:37;;;;;;;13.90;10.30;;;;;;;6.47;40.15;101404.91;145074;1257;96943;-85
2023/02/10 06:33:59;;;;;;;11.10;8.50;;;;;;;6.54;43.07;101406.36;145001;1254;96633;-81
2023/02/10 06:37:21;;;;;;;14.70;10.10;;;;;;;6.66;44.08;101405.47;145067;1254;97839;-82
2023/02/10 06:40:42;;;;;;;15.80;9.70;;;;;;;6.73;43.66;101411.89;145216;1261;96634;-86
2023/02/10 06:44:05;;;;;;;13.30;10.20;;;;;;;6.78;44.01;101410.15;145157;1256;97754;-83
2023/02/10 06:47:26;;;;;;;12.40;9.20;;;;;;;6.84;44.10;101410.11;144847;1261;96560;-83
2023/02/10 06:50:48;;;;;;;13.20;9.60;;;;;;;6.90;43.90;101408.35;145123;1254;96594;-84
2023/02/10 06:54:10;;;;;;;17.70;11.30;;;;;;;6.97;43.71;101417.05;145089;1259;97932;-84
2023/02/10 06:57:33;;;;;;;17.20;10.70;;;;;;;7.05;43.66;101415.95;145013;1259;111117;-83
2023/02/10 07:00:55;;;;;;;12.70;9.50;;;;;;;7.18;43.35;101418.48;145143;1258;97912;-83
2023/02/10 07:04:16;;;;;;;17.10;11.30;;;;;;;7.31;43.26;101417.65;145228;1261;97953;-84
2023/02/10 07:07:38;;;;;;;16.10;12.10;;;;;;;7.44;42.99;101417.31;145282;1259;102295;-89
2023/02/10 07:11:01;;;;;;;16.50;12.00;;;;;;;7.54;42.78;101423.23;145318;1259;97928;-83
2023/02/10 07:14:22;;;;;;;20.40;11.40;;;;;;;7.64;42.48;101429.24;145429;1254;98053;-86
2023/02/10 07:17:45;;;;;;;15.40;12.40;;;;;;;7.72;42.26;101427.59;145336;1259;106610;-83
2023/02/10 07:21:07;;;;;;;13.70;10.50;;;;;;;7.79;42.02;101427.79;145453;1259;98810;-83
2023/02/10 07:24:29;;;;;;;17.10;12.20;;;;;;;7.87;41.95;101432.02;145326;1259;98372;-83
2023/02/10 07:27:51;;;;;;;16.70;11.60;;;;;;;7.97;41.70;101432.33;145547;1254;97925;-83
2023/02/10 07:31:13;;;;;;;16.30;11.50;;;;;;;8.04;41.47;101437.54;145318;1254;97991;-84
2023/02/10 07:34:36;;;;;;;17.00;10.60;;;;;;;8.14;41.43;101441.30;145426;1254;97998;-84
2023/02/10 07:37:57;;;;;;;18.00;11.50;;;;;;;8.27;41.28;101448.92;145398;1255;97924;-84
2023/02/10 07:41:20;;;;;;;16.80;11.50;;;;;;;8.41;41.08;101449.10;145620;1254;97933;-84
2023/02/10 07:44:42;;;;;;;18.20;11.90;;;;;;;8.58;40.93;101448.56;145442;1254;98325;-83
2023/02/10 07:48:03;;;;;;;15.70;11.20;;;;;;;8.79;40.62;101449.73;145429;1258;110666;-83
2023/02/10 07:51:25;;;;;;;16.50;11.60;;;;;;;9.02;40.41;101439.58;145370;1254;99232;-83
2023/02/10 07:54:48;;;;;;;15.90;11.60;;;;;;;9.27;40.05;101438.11;145346;1254;98831;-84
2023/02/10 07:58:14;;;;;;;15.40;12.60;;;;;;;9.49;39.81;101446.95;146260;1255;103351;-90
2023/02/10 08:01:42;;;;;;;15.90;11.40;;;;;;;9.69;39.78;101443.83;145878;1257;100735;-85
2023/02/10 08:05:04;;;;;;;15.80;11.10;;;;;;;9.90;39.53;101444.39;145542;1254;102066;-87
2023/02/10 08:08:26;;;;;;;19.00;12.10;;;;;;;10.15;39.18;101440.42;145457;1254;97905;-86
2023/02/10 08:11:48;;;;;;;16.70;12.80;;;;;;;10.52;38.87;101434.01;145437;1256;97902;-86
2023/02/10 08:15:10;;;;;;;15.70;11.90;;;;;;;10.79;38.76;101428.82;145281;1259;107231;-86
2023/02/10 08:18:32;;;;;;;15.20;11.90;;;;;;;11.15;38.35;101433.87;145328;1262;97931;-87
2023/02/10 08:21:54;;;;;;;16.20;12.20;;;;;;;11.27;37.92;101435.18;145320;1257;98043;-86
2023/02/10 08:25:16;;;;;;;17.50;12.60;;;;;;;11.06;37.90;101431.63;145283;1256;97911;-87
2023/02/10 08:28:39;;;;;;;16.30;11.30;;;;;;;10.80;37.87;101432.16;145323;1257;98907;-85
2023/02/10 08:32:01;;;;;;;17.80;12.20;;;;;;;10.56;37.94;101435.05;145515;1256;97914;-85
2023/02/10 08:35:24;;;;;;;18.30;13.60;;;;;;;10.37;37.89;101444.86;144994;1266;98090;-85
2023/02/10 08:38:48;;;;;;;18.10;12.80;;;;;;;10.21;37.93;101447.13;144907;1260;97951;-84
2023/02/10 08:42:10;;;;;;;17.00;12.70;;;;;;;10.10;38.14;101442.50;144771;1260;98095;-85
2023/02/10 08:45:32;;;;;;;17.30;12.80;;;;;;;10.01;38.28;101438.12;144923;1262;98852;-85
2023/02/10 08:48:53;;;;;;;18.40;12.80;;;;;;;9.92;38.42;101439.10;144859;1264;110154;-85
2023/02/10 08:52:15;;;;;;;17.60;12.40;;;;;;;9.83;38.52;101444.45;145164;1254;98075;-82
2023/02/10 08:55:37;;;;;;;17.40;12.40;;;;;;;9.75;38.58;101445.48;145598;1254;97981;-84
2023/02/10 08:58:59;;;;;;;16.80;12.80;;;;;;;9.66;38.77;101440.59;145898;1258;102197;-86
2023/02/10 09:02:21;;;;;;;19.50;12.10;;;;;;;9.62;38.93;101456.38;145385;1254;98055;-88
2023/02/10 09:05:52;;;;;;;18.70;12.60;;;;;;;9.58;38.90;101468.52;145152;1254;97897;-82
2023/02/10 09:09:19;;;;;;;19.30;13.90;;;;;;;9.53;39.01;101470.01;145447;1259;107411;-81
2023/02/10 09:12:42;;;;;;;16.10;11.90;;;;;;;9.50;39.03;101479.59;145257;1257;107498;-81
2023/02/10 09:16:04;;;;;;;16.10;12.20;;;;;;;9.46;39.28;101486.20;145231;1259;99316;-82
2023/02/10 09:19:37;;;;;;;20.20;12.10;;;;;;;9.42;39.20;101496.43;145591;1256;107548;-82
2023/02/10 09:22:59;;;;;;;16.80;12.10;;;;;;;9.39;39.29;101490.41;145600;1259;107203;-81
2023/02/10 09:26:24;;;;;;;18.10;12.40;;;;;;;9.40;39.50;101487.15;145468;1258;106821;-83
2023/02/10 09:29:46;;;;;;;17.50;12.00;;;;;;;9.43;39.46;101488.86;145362;1256;97963;-83
2023/02/10 09:33:08;;;;;;;16.00;12.20;;;;;;;9.47;39.46;101490.05;145431;1259;99196;-78
2023/02/10 09:36:30;;;;;;;17.40;11.20;;;;;;;9.53;39.74;101494.13;145398;1254;97907;-81
2023/02/10 09:39:52;;;;;;;19.70;13.10;;;;;;;9.57;39.67;101501.10;145399;1258;97980;-88
2023/02/10 09:43:35;;;;;;;15.70;11.90;;;;;;;9.59;39.74;101510.02;145443;1254;97991;-80
2023/02/10 09:47:18;;;;;;;19.90;12.30;;;;;;;9.57;39.64;101509.95;145249;1259;118157;-80
2023/02/10 09:50:59;;;;;;;20.20;12.50;;;;;;;9.53;39.69;101511.31;145369;1256;98002;-77
2023/02/10 09:54:22;;;;;;;15.30;11.90;;;;;;;9.50;39.86;101514.31;144929;1259;99201;-78
2023/02/10 09:57:48;;;;;;;18.40;12.70;;;;;;;9.46;39.87;101506.17;145171;1261;98406;-76
2023/02/10 10:01:22;;;;;;;14.60;11.40;;;;;;;9.43;39.86;101488.84;145376;1259;97912;-76
2023/02/10 10:04:44;;;;;;;18.40;12.40;;;;;;;9.43;40.15;101489.88;145329;1256;98005;-78
2023/02/10 10:08:17;;;;;;;22.00;12.60;;;;;;;9.43;39.88;101487.79;144986;1258;97919;-76
2023/02/10 10:11:46;;;;;;;16.10;11.90;;;;;;;9.43;40.20;101484.88;145193;1254;99212;-79
2023/02/10 10:15:15;;;;;;;21.40;13.40;;;;;;;9.50;40.08;101480.29;145063;1259;98026;-80
2023/02/10 10:19:16;;;;;;;18.80;13.70;;;;;;;9.52;40.25;101485.91;145142;1259;98813;-77
2023/02/10 10:22:57;;;;;;;19.60;13.80;;;;;;;9.54;40.18;101475.27;144904;1259;99186;-77
2023/02/10 10:26:37;;;;;;;17.80;13.20;;;;;;;9.55;40.27;101472.51;145241;1258;97941;-76
2023/02/10 10:30:29;;;;;;;16.70;12.40;;;;;;;9.53;40.35;101475.73;145088;1259;99215;-80
2023/02/10 10:33:59;;;;;;;16.70;11.50;;;;;;;9.52;40.25;101490.45;144961;1259;97925;-75
2023/02/10 10:37:24;;;;;;;22.00;12.90;;;;;;;9.52;40.42;101491.00;145446;1258;99312;-77
2023/02/10 10:40:48;;;;;;;15.70;12.00;;;;;;;9.52;40.35;101491.10;144896;1261;97890;-76
2023/02/10 10:44:15;;;;;;;19.70;11.80;;;;;;;9.48;40.57;101492.54;145527;1254;97900;-77
2023/02/10 10:47:56;;;;;;;17.00;11.60;;;;;;;9.47;40.46;101494.39;145366;1258;97876;-76
2023/02/10 10:51:18;;;;;;;18.90;12.90;;;;;;;9.43;40.64;101492.86;145007;1259;99201;-79
2023/02/10 10:54:41;;;;;;;17.30;12.00;;;;;;;9.39;40.60;101494.06;144963;1255;98808;-76
2023/02/10 10:58:28;;;;;;;18.60;12.50;;;;;;;9.35;40.74;101499.08;145044;1258;97938;-80
2023/02/10 11:01:52;;;;;;;18.90;12.30;;;;;;;9.33;40.82;101504.66;145360;1254;111980;-76
2023/02/10 11:05:15;;;;;;;17.90;11.90;;;;;;;9.30;40.81;101502.44;145329;1254;112447;-79
2023/02/10 11:08:44;;;;;;;16.60;12.40;;;;;;;9.28;40.94;101499.77;145061;1256;98360;-79
2023/02/10 11:12:24;;;;;;;20.60;12.60;;;;;;;9.29;40.95;101494.60;145362;1259;111182;-77
2023/02/10 11:15:47;;;;;;;17.20;11.90;;;;;;;9.31;41.00;101496.41;145104;1255;111836;-78
2023/02/10 11:19:27;;;;;;;18.80;12.10;;;;;;;9.32;41.17;101502.73;145039;1259;99229;-79
2023/02/10 11:22:59;;;;;;;19.40;11.90;;;;;;;9.35;41.11;101500.42;145096;1259;111095;-78
2023/02/10 11:26:23;;;;;;;19.50;12.20;;;;;;;9.37;41.10;101502.23;145052;1259;110052;-79
2023/02/10 11:29:57;;;;;;;20.70;12.60;;;;;;;9.38;41.16;101510.33;144717;1263;111214;-77
2023/02/10 11:33:24;;;;;;;18.30;12.20;;;;;;;9.38;41.20;101514.85;144950;1258;111195;-78
2023/02/10 11:36:46;;;;;;;16.40;10.90;;;;;;;9.40;41.17;101513.85;144869;1258;111342;-77
2023/02/10 11:40:30;;;;;;;17.00;12.40;;;;;;;9.42;41.23;101520.39;145107;1260;98410;-75
2023/02/10 11:43:52;;;;;;;17.50;10.90;;;;;;;9.48;41.18;101522.21;145604;1258;109993;-83
2023/02/10 11:47:16;;;;;;;18.70;12.70;;;;;;;9.57;41.23;101508.89;145731;1259;97912;-83
2023/02/10 11:50:38;;;;;;;20.40;12.10;;;;;;;9.72;41.04;101512.40;145561;1258;110601;-82
2023/02/10 11:54:00;;;;;;;18.10;12.40;;;;;;;9.87;41.14;101524.00;145264;1258;98036;-83
2023/02/10 12:01:49;;;;;;;16.20;12.20;;;;;;;10.00;40.89;101530.30;145182;1267;103587;-86
2023/02/10 12:05:29;;;;;;;21.30;13.30;;;;;;;10.00;40.95;101533.23;144877;1261;101154;-83
2023/02/10 12:08:58;;;;;;;;;;;;;;;10.00;40.67;101536.39;145249;1258;101977;-83
2023/02/10 12:12:39;;;;;;;17.50;12.10;;;;;;;10.00;40.73;101533.55;145182;1259;101877;-79
2023/02/10 12:16:19;;;;;;;17.50;11.80;;;;;;;9.98;40.69;101528.30;144782;1259;101988;-84
2023/02/10 12:20:05;;;;;;;19.30;12.10;;;;;;;10.00;40.97;101534.81;145227;1257;103659;-78
2023/02/10 12:23:36;;;;;;;15.60;11.40;;;;;;;10.02;40.83;101530.17;145033;1259;102106;-84
2023/02/10 12:27:13;;;;;;;17.00;11.20;;;;;;;10.04;40.76;101525.43;145053;1278;101879;-80
2023/02/10 12:30:57;;;;;;;18.40;11.20;;;;;;;10.06;40.73;101522.77;145140;1259;102352;-79
2023/02/10 12:35:20;;;;;;;19.90;12.10;;;;;;;10.09;40.56;101527.71;144911;1260;103006;-83
2023/02/10 12:38:48;;;;;;;17.90;12.00;;;;;;;10.09;40.77;101524.11;145012;1254;101940;-85
2023/02/10 12:42:40;;;;;;;17.70;11.80;;;;;;;10.10;40.73;101524.14;145259;1259;102378;-81
2023/02/10 12:46:32;;;;;;;19.90;11.80;;;;;;;10.09;40.74;101518.89;144801;1257;102014;-86
2023/02/10 12:50:24;;;;;;;20.30;11.70;;;;;;;10.08;40.92;101513.77;144949;1256;102235;-80
2023/02/10 12:54:02;;;;;;;17.40;12.10;;;;;;;10.08;41.15;101510.12;145067;1257;102173;-86
2023/02/10 12:57:28;;;;;;;17.60;11.60;;;;;;;10.06;41.06;101506.58;145151;1276;102143;-81
2023/02/10 13:01:24;;;;;;;15.90;11.30;;;;;;;10.04;41.32;101504.23;144775;1259;102004;-86
2023/02/10 13:04:51;;;;;;;19.10;12.40;;;;;;;10.05;40.97;101511.73;145276;1259;102190;-86
2023/02/10 13:08:24;;;;;;;18.60;11.50;;;;;;;10.03;41.34;101525.20;145105;1259;100290;-83
2023/02/10 13:12:31;;;;;;;16.90;11.50;;;;;;;9.99;41.27;101530.77;145262;1258;102162;-81
2023/02/10 13:16:10;;;;;;;19.00;12.00;;;;;;;9.93;41.53;101540.05;145436;1258;102174;-78
2023/02/10 13:20:17;;;;;;;19.60;11.90;;;;;;;9.89;41.65;101543.19;145567;1255;102203;-79
2023/02/10 13:23:52;;;;;;;16.40;11.30;;;;;;;9.86;41.96;101535.73;144388;1263;102244;-78
2023/02/10 13:27:24;;;;;;;17.30;11.50;;;;;;;9.84;41.93;101539.64;144290;1263;101936;-79
2023/02/10 13:31:41;;;;;;;21.60;11.80;;;;;;;9.80;42.02;101542.07;144418;1263;104536;-77
2023/02/10 13:35:06;;;;;;;15.10;10.80;;;;;;;9.75;41.94;101544.44;144024;1270;101969;-87
2023/02/10 13:38:32;;;;;;;17.20;12.50;;;;;;;9.72;42.21;101543.08;143939;1271;101391;-80
2023/02/10 13:42:35;;;;;;;19.80;12.90;;;;;;;9.68;42.41;101546.04;143971;1274;102173;-80
2023/02/10 13:45:57;;;;;;;19.00;12.20;;;;;;;9.64;42.34;101545.83;143112;1280;102203;-77
2023/02/10 13:49:19;;;;;;;21.40;13.10;;;;;;;9.60;42.57;101546.88;143091;1282;98115;-82
2023/02/10 13:52:56;;;;;;;18.60;13.50;;;;;;;9.57;42.50;101546.39;143195;1280;99050;-81
2023/02/10 13:56:21;;;;;;;21.20;13.60;;;;;;;9.53;42.73;101553.01;143192;1281;107536;-81
2023/02/10 13:59:43;;;;;;;20.20;12.80;;;;;;;9.49;42.59;101554.52;143854;1275;106323;-83
2023/02/10 14:03:27;;;;;;;19.80;12.80;;;;;;;9.45;42.80;101555.20;143880;1271;107269;-79
2023/02/10 14:06:51;;;;;;;22.60;13.60;;;;;;;9.41;42.97;101560.41;143927;1276;108566;-78
2023/02/10 14:10:19;;;;;;;21.90;13.50;;;;;;;9.37;42.89;101568.90;144404;1264;108627;-80
2023/02/10 14:13:44;;;;;;;16.70;12.10;;;;;;;9.34;42.99;101574.64;144635;1268;107573;-81
2023/02/10 14:17:15;;;;;;;20.50;12.00;;;;;;;9.30;43.10;101571.02;144601;1264;107547;-82
2023/02/10 14:20:43;;;;;;;16.30;12.40;;;;;;;9.27;43.09;101576.38;145050;1255;108676;-81
2023/02/10 14:24:13;;;;;;;24.90;14.40;;;;;;;9.23;43.15;101581.91;145739;1259;107612;-81
2023/02/10 14:27:54;;;;;;;27.10;14.50;;;;;;;9.17;43.37;101585.48;145642;1257;107519;-80
2023/02/10 14:31:36;;;;;;;20.40;13.70;;;;;;;9.15;43.33;101588.32;145549;1254;107489;-79
2023/02/10 14:35:05;;;;;;;23.20;13.00;;;;;;;9.11;43.56;101595.43;145374;1258;106711;-81
2023/02/10 14:38:39;;;;;;;23.50;14.70;;;;;;;9.09;43.70;101599.27;145359;1258;106957;-79
2023/02/10 14:42:04;;;;;;;22.10;14.30;;;;;;;9.05;43.48;101607.74;145456;1261;97906;-79
2023/02/10 14:45:27;;;;;;;16.80;9.20;;;;;;;9.02;44.76;101603.80;145155;1258;107196;-78
2023/02/10 14:49:02;;;;;;;15.60;9.90;;;;;;;9.18;48.20;101608.95;145638;1258;97976;-76
2023/02/10 14:52:36;;;;;;;20.10;12.10;;;;;;;9.25;48.46;101611.33;145221;1259;107527;-77
2023/02/10 14:56:01;;;;;;;17.30;11.80;;;;;;;9.21;48.69;101609.61;144961;1259;106828;-82
2023/02/10 14:59:30;;;;;;;22.80;12.40;;;;;;;9.17;48.90;101604.91;145490;1261;108491;-79
2023/02/10 15:02:57;;;;;;;16.50;11.20;;;;;;;9.13;48.96;101606.09;145482;1257;107055;-79
2023/02/10 15:06:21;;;;;;;21.10;12.80;;;;;;;9.11;48.84;101611.01;145356;1254;107635;-77
2023/02/10 15:09:46;;;;;;;25.00;14.30;;;;;;;9.08;48.78;101613.80;145104;1259;105865;-84
2023/02/10 15:13:08;;;;;;;26.40;12.40;;;;;;;9.05;48.73;101610.90;145914;1258;97905;-78
2023/02/10 15:16:31;;;;;;;26.50;13.70;;;;;;;9.01;48.64;101609.49;145675;1256;97940;-78
2023/02/10 15:19:58;;;;;;;24.50;12.80;;;;;;;8.98;48.60;101607.24;145456;1256;98099;-79
2023/02/10 15:23:20;;;;;;;19.80;13.20;;;;;;;8.96;48.37;101608.02;145418;1262;97923;-80
2023/02/10 15:27:17;;;;;;;18.50;12.10;;;;;;;8.94;48.34;101606.17;145490;1256;99182;-79
2023/02/10 15:30:45;;;;;;;21.30;12.70;;;;;;;8.91;48.17;101607.96;145338;1261;97998;-79
2023/02/10 15:34:21;;;;;;;20.40;12.60;;;;;;;8.90;48.00;101611.86;145620;1260;97898;-80
2023/02/10 15:37:56;;;;;;;23.30;13.10;;;;;;;8.87;47.97;101616.41;145335;1257;99191;-90
2023/02/10 15:41:35;;;;;;;21.30;13.80;;;;;;;8.85;47.90;101624.30;144951;1273;98258;-88
2023/02/10 15:45:16;;;;;;;18.50;13.20;;;;;;;8.83;47.81;101631.29;145532;1260;98416;-88